createdAt,value
2022-11-20T00:00:36.865Z,6.72
2022-11-20T00:02:00.285Z,5.95
2022-11-20T00:03:23.037Z,6.22
2022-11-20T00:04:46.597Z,6.15
2022-11-20T00:06:11.687Z,5.57
2022-11-20T00:07:35.121Z,6.18
2022-11-20T00:09:01.072Z,5.90
2022-11-20T00:10:23.607Z,6.10
2022-11-20T00:11:47.084Z,6.38
2022-11-20T00:13:09.807Z,5.82
2022-11-20T00:14:33.422Z,5.07
2022-11-20T00:15:59.795Z,6.35
2022-11-20T00:17:22.204Z,5.97
2022-11-20T00:18:45.853Z,6.35
2022-11-20T00:20:10.659Z,5.57
2022-11-20T00:21:34.352Z,6.25
2022-11-20T00:22:56.904Z,5.80
2022-11-20T00:24:21.648Z,6.50
2022-11-20T00:25:44.107Z,6.30
2022-11-20T00:27:07.561Z,6.45
2022-11-20T00:28:29.986Z,6.50
2022-11-20T00:29:53.448Z,5.88
2022-11-20T00:31:16.817Z,6.38
2022-11-20T00:32:40.219Z,5.63
2022-11-20T00:34:03.653Z,6.05
2022-11-20T00:35:26.053Z,5.75
2022-11-20T00:36:49.583Z,5.57
2022-11-20T00:38:12.008Z,5.35
2022-11-20T00:39:37.177Z,6.10
2022-11-20T00:40:59.966Z,5.53
2022-11-20T00:42:23.320Z,5.35
2022-11-20T00:43:45.739Z,6.22
2022-11-20T00:45:09.567Z,5.95
2022-11-20T00:46:33.004Z,5.65
2022-11-20T00:47:55.426Z,5.32
2022-11-20T00:49:19.615Z,5.50
2022-11-20T00:50:42.936Z,6.05
2022-11-20T00:52:06.622Z,4.93
2022-11-20T00:53:29.197Z,5.68
2022-11-20T00:54:53.979Z,5.78
2022-11-20T00:56:17.993Z,5.88
2022-11-20T00:57:41.377Z,5.65
2022-11-20T00:59:05.212Z,5.70
2022-11-20T01:00:27.592Z,6.20
2022-11-20T01:01:51.036Z,5.40
2022-11-20T01:03:13.404Z,5.20
2022-11-20T01:04:36.751Z,5.28
2022-11-20T01:06:03.305Z,6.35
2022-11-20T01:07:25.746Z,5.30
2022-11-20T01:08:49.712Z,6.25
2022-11-20T01:10:14.489Z,6.00
2022-11-20T01:11:39.303Z,5.68
2022-11-20T01:13:17.776Z,5.70
2022-11-20T01:14:43.626Z,5.50
2022-11-20T01:16:07.360Z,5.15
2022-11-20T01:17:30.719Z,6.20
2022-11-20T01:18:54.857Z,6.32
2022-11-20T01:20:18.438Z,6.20
2022-11-20T01:21:43.008Z,5.75
2022-11-20T01:23:05.583Z,6.50
2022-11-20T01:24:29.238Z,5.55
2022-11-20T01:25:53.281Z,5.85
2022-11-20T01:27:16.631Z,5.53
2022-11-20T01:28:39.358Z,6.43
2022-11-20T01:30:02.740Z,5.43
2022-11-20T01:31:26.606Z,6.78
2022-11-20T01:32:50.008Z,5.90
2022-11-20T01:34:15.302Z,5.60
2022-11-20T01:35:37.808Z,5.25
2022-11-20T01:37:01.163Z,5.78
2022-11-20T01:38:23.748Z,5.95
2022-11-20T01:39:47.148Z,5.85
2022-11-20T01:41:32.418Z,5.80
2022-11-20T01:43:22.036Z,6.25
2022-11-20T01:45:03.150Z,6.07
2022-11-20T01:46:25.946Z,6.53
2022-11-20T01:47:51.451Z,5.65
2022-11-20T01:49:20.501Z,6.50
2022-11-20T01:50:44.017Z,5.30
2022-11-20T01:52:10.077Z,5.57
2022-11-20T01:53:34.477Z,5.72
2022-11-20T01:55:00.575Z,5.90
2022-11-20T01:56:25.663Z,5.55
2022-11-20T01:57:49.062Z,5.95
2022-11-20T01:59:14.320Z,6.38
2022-11-20T02:00:36.799Z,5.80
2022-11-20T02:02:00.203Z,6.40
2022-11-20T02:03:23.715Z,6.15
2022-11-20T02:04:47.281Z,6.53
2022-11-20T02:06:14.011Z,6.13
2022-11-20T02:07:38.000Z,6.00
2022-11-20T02:09:01.448Z,6.38
2022-11-20T02:10:23.828Z,5.38
2022-11-20T02:11:48.880Z,6.88
2022-11-20T02:13:29.841Z,6.00
2022-11-20T02:14:52.340Z,5.97
2022-11-20T02:16:22.039Z,6.13
2022-11-20T02:17:45.399Z,5.93
2022-11-20T02:19:12.038Z,6.57
2022-11-20T02:20:34.487Z,5.30
2022-11-20T02:22:02.459Z,5.95
2022-11-20T02:23:29.524Z,6.45
2022-11-20T02:24:54.252Z,6.63
2022-11-20T02:26:18.966Z,6.07
2022-11-20T02:27:42.379Z,6.50
2022-11-20T02:29:04.939Z,6.00
2022-11-20T02:30:28.473Z,5.70
2022-11-20T02:31:50.864Z,6.13
2022-11-20T02:33:14.423Z,6.28
2022-11-20T02:34:37.857Z,6.15
2022-11-20T02:36:00.262Z,5.90
2022-11-20T02:37:24.164Z,6.32
2022-11-20T02:38:46.877Z,6.70
2022-11-20T02:40:12.773Z,6.30
2022-11-20T02:41:38.224Z,6.55
2022-11-20T02:43:00.630Z,6.30
2022-11-20T02:44:24.467Z,6.80
2022-11-20T02:45:47.834Z,5.55
2022-11-20T02:47:11.446Z,5.93
2022-11-20T02:48:34.165Z,6.22
2022-11-20T02:49:57.644Z,6.07
2022-11-20T02:51:20.072Z,6.57
2022-11-20T02:52:43.459Z,6.80
2022-11-20T02:54:06.931Z,6.38
2022-11-20T02:55:30.760Z,6.85
2022-11-20T02:56:54.169Z,5.95
2022-11-20T02:58:16.534Z,6.55
2022-11-20T02:59:39.943Z,5.50
2022-11-20T03:01:03.515Z,6.10
2022-11-20T03:02:27.261Z,6.45
2022-11-20T03:03:50.637Z,6.30
2022-11-20T03:05:12.991Z,7.00
2022-11-20T03:06:36.529Z,6.00
2022-11-20T03:07:58.918Z,6.63
2022-11-20T03:09:22.547Z,6.75
2022-11-20T03:10:46.513Z,6.45
2022-11-20T03:12:10.131Z,6.57
2022-11-20T03:13:32.643Z,6.38
2022-11-20T03:14:56.046Z,6.68
2022-11-20T03:16:21.855Z,6.43
2022-11-20T03:17:44.226Z,6.88
2022-11-20T03:19:07.943Z,6.40
2022-11-20T03:20:30.377Z,5.65
2022-11-20T03:21:53.749Z,6.57
2022-11-20T03:23:17.270Z,6.72
2022-11-20T03:24:39.660Z,6.40
2022-11-20T03:26:18.513Z,6.00
2022-11-20T03:27:40.932Z,6.05
2022-11-20T03:29:06.061Z,6.30
2022-11-20T03:30:30.782Z,6.18
2022-11-20T03:31:54.530Z,6.65
2022-11-20T03:33:17.919Z,6.10
2022-11-20T03:34:40.271Z,6.35
2022-11-20T03:36:04.956Z,6.60
2022-11-20T03:37:27.349Z,6.40
2022-11-20T03:38:50.931Z,6.40
2022-11-20T03:40:14.803Z,7.22
2022-11-20T03:41:40.206Z,6.95
2022-11-20T03:43:03.706Z,6.70
2022-11-20T03:44:26.193Z,6.88
2022-11-20T03:45:50.096Z,6.32
2022-11-20T03:47:13.484Z,6.53
2022-11-20T03:48:36.901Z,7.18
2022-11-20T03:49:59.282Z,7.35
2022-11-20T03:51:24.566Z,6.88
2022-11-20T03:52:47.947Z,6.82
2022-11-20T03:54:10.719Z,7.65
2022-11-20T03:55:34.108Z,6.15
2022-11-20T03:56:58.845Z,6.60
2022-11-20T03:58:22.213Z,6.65
2022-11-20T03:59:45.615Z,6.38
2022-11-20T04:01:09.437Z,6.43
2022-11-20T04:02:32.831Z,6.18
2022-11-20T04:03:59.753Z,6.32
2022-11-20T04:05:22.157Z,6.32
2022-11-20T04:06:45.507Z,7.15
2022-11-20T04:08:07.905Z,6.85
2022-11-20T04:09:31.390Z,6.70
2022-11-20T04:10:54.749Z,7.18
2022-11-20T04:12:19.704Z,7.07
2022-11-20T04:13:43.362Z,6.10
2022-11-20T04:15:07.444Z,7.05
2022-11-20T04:16:32.175Z,6.82
2022-11-20T04:18:10.506Z,7.00
2022-11-20T04:19:36.359Z,6.68
2022-11-20T04:20:58.982Z,6.75
2022-11-20T04:22:22.332Z,6.95
2022-11-20T04:23:44.734Z,7.10
2022-11-20T04:25:08.758Z,6.32
2022-11-20T04:26:32.946Z,7.45
2022-11-20T04:27:57.682Z,6.50
2022-11-20T04:29:21.432Z,7.47
2022-11-20T04:30:45.289Z,7.28
2022-11-20T04:32:08.668Z,6.88
2022-11-20T04:33:33.995Z,7.22
2022-11-20T04:34:57.830Z,7.13
2022-11-20T04:36:21.850Z,6.93
2022-11-20T04:37:45.210Z,6.45
2022-11-20T04:39:08.251Z,6.78
2022-11-20T04:40:31.761Z,7.47
2022-11-20T04:42:15.289Z,7.25
2022-11-20T04:43:39.044Z,5.80
2022-11-20T04:45:02.436Z,6.88
2022-11-20T04:46:24.799Z,7.18
2022-11-20T04:47:48.278Z,6.63
2022-11-20T04:49:12.591Z,6.90
2022-11-20T04:50:35.079Z,6.95
2022-11-20T04:51:58.541Z,7.32
2022-11-20T04:53:22.654Z,8.10
2022-11-20T04:54:45.090Z,6.97
2022-11-20T04:56:10.069Z,7.50
2022-11-20T04:57:33.513Z,7.40
2022-11-20T04:59:00.545Z,7.13
2022-11-20T05:00:24.084Z,6.68
2022-11-20T05:01:46.790Z,7.03
2022-11-20T05:03:10.256Z,6.38
2022-11-20T05:04:33.861Z,6.50
2022-11-20T05:05:56.230Z,7.10
2022-11-20T05:07:19.701Z,7.07
2022-11-20T05:08:42.196Z,7.25
2022-11-20T05:10:06.226Z,6.45
2022-11-20T05:11:30.035Z,6.05
2022-11-20T05:12:53.500Z,7.75
2022-11-20T05:14:18.636Z,6.25
2022-11-20T05:15:42.047Z,6.72
2022-11-20T05:17:07.363Z,7.25
2022-11-20T05:18:29.788Z,7.15
2022-11-20T05:19:53.389Z,6.72
2022-11-20T05:21:17.119Z,6.50
2022-11-20T05:22:39.499Z,6.88
2022-11-20T05:24:02.876Z,6.20
2022-11-20T05:25:25.284Z,7.55
2022-11-20T05:26:48.659Z,6.93
2022-11-20T05:28:11.039Z,7.68
2022-11-20T05:29:35.828Z,7.28
2022-11-20T05:31:05.057Z,6.90
2022-11-20T05:32:28.498Z,7.50
2022-11-20T05:33:50.935Z,7.28
2022-11-20T05:35:14.305Z,6.85
2022-11-20T05:36:36.769Z,6.18
2022-11-20T05:38:00.150Z,7.38
2022-11-20T05:39:23.755Z,7.28
2022-11-20T05:40:46.344Z,7.22
2022-11-20T05:42:27.325Z,6.85
2022-11-20T05:43:51.702Z,6.35
2022-11-20T05:45:16.635Z,7.65
2022-11-20T05:46:40.014Z,7.75
2022-11-20T05:48:02.486Z,7.18
2022-11-20T05:49:25.947Z,7.07
2022-11-20T05:50:48.460Z,7.15
2022-11-20T05:52:11.808Z,6.93
2022-11-20T05:53:35.865Z,6.75
2022-11-20T05:54:59.362Z,7.55
2022-11-20T05:56:23.846Z,7.72
2022-11-20T05:57:46.222Z,7.43
2022-11-20T05:59:09.815Z,6.63
2022-11-20T06:00:33.667Z,6.60
2022-11-20T06:01:57.190Z,7.10
2022-11-20T06:03:19.841Z,7.47
2022-11-20T06:04:43.247Z,6.88
2022-11-20T06:06:07.372Z,7.05
2022-11-20T06:07:30.852Z,7.35
2022-11-20T06:08:54.262Z,7.30
2022-11-20T06:10:17.899Z,6.97
2022-11-20T06:11:41.542Z,6.93
2022-11-20T06:13:03.916Z,6.78
2022-11-20T06:14:27.274Z,6.60
2022-11-20T06:15:52.744Z,6.95
2022-11-20T06:17:16.343Z,7.07
2022-11-20T06:18:39.758Z,7.07
2022-11-20T06:20:03.113Z,8.00
2022-11-20T06:21:26.603Z,7.13
2022-11-20T06:22:50.106Z,6.85
2022-11-20T06:24:13.895Z,7.28
2022-11-20T06:25:39.229Z,7.45
2022-11-20T06:27:02.621Z,6.93
2022-11-20T06:28:26.045Z,7.30
2022-11-20T06:29:49.405Z,6.95
2022-11-20T06:31:17.415Z,6.85
2022-11-20T06:32:40.776Z,6.80
2022-11-20T06:34:03.235Z,6.93
2022-11-20T06:35:26.688Z,7.30
2022-11-20T06:36:50.207Z,6.88
2022-11-20T06:38:12.740Z,7.22
2022-11-20T06:39:36.081Z,6.97
2022-11-20T06:40:59.440Z,6.75
2022-11-20T06:42:22.792Z,7.32
2022-11-20T06:43:46.178Z,6.72
2022-11-20T06:45:11.145Z,7.05
2022-11-20T06:46:35.844Z,7.03
2022-11-20T06:47:59.391Z,7.75
2022-11-20T06:49:23.057Z,6.78
2022-11-20T06:50:45.760Z,7.82
2022-11-20T06:52:09.132Z,6.97
2022-11-20T06:53:31.607Z,6.55
2022-11-20T06:54:54.998Z,7.43
2022-11-20T06:56:18.496Z,7.28
2022-11-20T06:57:40.865Z,8.05
2022-11-20T06:59:07.124Z,6.88
2022-11-20T07:00:30.637Z,6.78
2022-11-20T07:01:55.459Z,7.63
2022-11-20T07:03:17.887Z,6.85
2022-11-20T07:04:41.445Z,7.95
2022-11-20T07:06:04.521Z,6.32
2022-11-20T07:07:27.965Z,7.25
2022-11-20T07:08:53.687Z,6.82
2022-11-20T07:10:16.118Z,7.47
2022-11-20T07:11:39.482Z,6.70
2022-11-20T07:13:02.910Z,8.00
2022-11-20T07:14:26.290Z,7.60
2022-11-20T07:15:49.664Z,7.47
2022-11-20T07:17:14.488Z,7.28
2022-11-20T07:18:38.164Z,7.32
2022-11-20T07:20:01.545Z,6.68
2022-11-20T07:21:24.953Z,7.45
2022-11-20T07:22:47.366Z,7.45
2022-11-20T07:24:10.819Z,8.32
2022-11-20T07:25:34.153Z,6.80
2022-11-20T07:26:57.503Z,7.40
2022-11-20T07:28:19.851Z,6.88
2022-11-20T07:29:43.224Z,7.68
2022-11-20T07:31:08.004Z,7.25
2022-11-20T07:32:33.035Z,8.43
2022-11-20T07:33:56.496Z,7.38
2022-11-20T07:35:18.918Z,6.53
2022-11-20T07:36:42.396Z,7.38
2022-11-20T07:38:05.759Z,7.95
2022-11-20T07:39:29.106Z,6.72
2022-11-20T07:40:57.075Z,7.35
2022-11-20T07:42:20.440Z,7.25
2022-11-20T07:43:43.873Z,8.02
2022-11-20T07:45:08.106Z,7.53
2022-11-20T07:46:31.591Z,7.28
2022-11-20T07:47:55.300Z,7.53
2022-11-20T07:49:18.736Z,6.60
2022-11-20T07:50:42.132Z,8.23
2022-11-20T07:52:05.953Z,6.75
2022-11-20T07:53:29.316Z,6.95
2022-11-20T07:54:52.824Z,8.25
2022-11-20T07:56:16.177Z,6.20
2022-11-20T07:57:39.547Z,6.95
2022-11-20T07:59:02.916Z,8.15
2022-11-20T08:00:25.376Z,7.22
2022-11-20T08:01:48.829Z,8.10
2022-11-20T08:03:13.803Z,6.50
2022-11-20T08:04:37.201Z,6.85
2022-11-20T08:06:02.371Z,7.63
2022-11-20T08:07:25.791Z,7.10
2022-11-20T08:08:49.177Z,6.93
2022-11-20T08:10:13.030Z,7.18
2022-11-20T08:11:53.710Z,8.05
2022-11-20T08:13:34.699Z,7.43
2022-11-20T08:14:59.822Z,7.40
2022-11-20T08:16:23.257Z,7.25
2022-11-20T08:18:08.246Z,7.95
2022-11-20T08:19:32.122Z,7.25
2022-11-20T08:20:54.552Z,7.28
2022-11-20T08:22:18.656Z,8.23
2022-11-20T08:23:42.055Z,8.02
2022-11-20T08:25:06.066Z,8.10
2022-11-20T08:26:28.666Z,8.15
2022-11-20T08:27:55.370Z,6.88
2022-11-20T08:29:21.424Z,7.85
2022-11-20T08:30:44.878Z,8.32
2022-11-20T08:32:08.284Z,7.85
2022-11-20T08:33:31.003Z,8.63
2022-11-20T08:34:56.127Z,8.25
2022-11-20T08:36:20.205Z,8.55
2022-11-20T08:37:43.626Z,8.32
2022-11-20T08:39:07.004Z,7.93
2022-11-20T08:40:30.394Z,7.47
2022-11-20T08:41:53.774Z,7.90
2022-11-20T08:43:16.154Z,7.88
2022-11-20T08:44:39.532Z,7.00
2022-11-20T08:46:02.890Z,7.65
2022-11-20T08:47:26.233Z,7.25
2022-11-20T08:48:48.757Z,8.40
2022-11-20T08:50:14.599Z,8.10
2022-11-20T08:51:38.240Z,7.82
2022-11-20T08:53:05.467Z,8.38
2022-11-20T08:54:28.913Z,7.88
2022-11-20T08:55:52.298Z,7.05
2022-11-20T08:57:15.702Z,7.20
2022-11-20T08:59:09.754Z,8.48
2022-11-20T09:00:23.277Z,7.95
2022-11-20T09:01:46.779Z,6.50
2022-11-20T09:03:10.180Z,6.90
2022-11-20T09:04:33.668Z,7.57
2022-11-20T09:06:02.133Z,7.88
2022-11-20T09:07:25.691Z,8.07
2022-11-20T09:08:49.610Z,7.75
2022-11-20T09:10:28.413Z,7.32
2022-11-20T09:11:52.001Z,7.75
2022-11-20T09:13:15.361Z,7.68
2022-11-20T09:14:38.802Z,7.93
2022-11-20T09:16:04.455Z,5.93
2022-11-20T09:17:27.867Z,7.30
2022-11-20T09:19:07.236Z,7.03
2022-11-20T09:20:36.444Z,6.82
2022-11-20T09:22:01.914Z,8.88
2022-11-20T09:23:25.424Z,9.05
2022-11-20T09:24:48.838Z,10.35
2022-11-20T09:26:13.887Z,8.70
2022-11-20T09:27:37.419Z,7.57
2022-11-20T09:29:01.624Z,8.05
2022-11-20T09:30:25.052Z,8.57
2022-11-20T09:31:48.450Z,8.43
2022-11-20T09:33:12.092Z,8.25
2022-11-20T09:34:35.465Z,8.75
2022-11-20T09:35:58.904Z,8.18
2022-11-20T09:37:23.640Z,7.85
2022-11-20T09:38:47.401Z,7.45
2022-11-20T09:40:21.291Z,7.35
2022-11-20T09:42:01.732Z,9.10
2022-11-20T09:43:34.628Z,8.20
2022-11-20T09:45:12.920Z,8.25
2022-11-20T09:46:40.985Z,7.22
2022-11-20T09:48:20.849Z,7.28
2022-11-20T09:49:56.263Z,7.20
2022-11-20T09:51:32.521Z,7.10
2022-11-20T09:53:07.189Z,7.03
2022-11-20T09:54:33.277Z,7.35
2022-11-20T09:55:57.758Z,7.35
2022-11-20T09:57:23.761Z,6.93
2022-11-20T09:58:49.846Z,8.32
2022-11-20T10:00:15.010Z,7.82
2022-11-20T10:01:39.418Z,7.18
2022-11-20T10:03:06.760Z,7.95
2022-11-20T10:04:34.540Z,7.53
2022-11-20T10:06:02.358Z,7.13
2022-11-20T10:07:32.586Z,7.90
2022-11-20T10:09:08.948Z,7.80
2022-11-20T10:10:43.481Z,7.15
2022-11-20T10:12:14.606Z,7.38
2022-11-20T10:13:45.376Z,7.82
2022-11-20T10:15:19.577Z,7.90
2022-11-20T10:16:49.341Z,7.75
2022-11-20T10:18:23.763Z,7.22
2022-11-20T10:20:04.849Z,7.85
2022-11-20T10:21:34.500Z,8.75
2022-11-20T10:23:10.248Z,17.40
2022-11-20T10:24:55.006Z,15.48
2022-11-20T10:26:23.253Z,14.07
2022-11-20T10:28:11.897Z,10.75
2022-11-20T10:29:36.533Z,7.78
2022-11-20T10:31:03.197Z,7.72
2022-11-20T10:32:30.567Z,8.45
2022-11-20T10:34:11.761Z,7.25
2022-11-20T10:35:39.237Z,7.43
2022-11-20T10:37:06.182Z,8.35
2022-11-20T10:38:36.498Z,7.53
2022-11-20T10:40:04.120Z,7.00
2022-11-20T10:41:33.138Z,8.38
2022-11-20T10:43:01.980Z,7.72
2022-11-20T10:44:47.050Z,7.72
2022-11-20T10:46:14.711Z,7.50
2022-11-20T10:47:38.406Z,7.47
2022-11-20T10:49:01.783Z,6.70
2022-11-20T10:50:25.672Z,7.25
2022-11-20T10:51:59.448Z,7.35
2022-11-20T10:53:42.630Z,7.32
2022-11-20T10:55:25.738Z,7.40
2022-11-20T10:56:51.016Z,7.85
2022-11-20T10:58:19.263Z,7.20
2022-11-20T10:59:56.387Z,7.85
2022-11-20T11:01:23.019Z,7.32
2022-11-20T11:02:50.333Z,7.07
2022-11-20T11:04:26.988Z,7.18
2022-11-20T11:05:54.053Z,7.60
2022-11-20T11:07:20.318Z,9.15
2022-11-20T11:08:44.361Z,8.00
2022-11-20T11:10:17.920Z,7.47
2022-11-20T11:11:41.833Z,7.70
2022-11-20T11:13:05.259Z,7.30
2022-11-20T11:14:28.716Z,8.15
2022-11-20T11:15:52.215Z,7.88
2022-11-20T11:17:30.228Z,7.47
2022-11-20T11:18:54.011Z,7.40
2022-11-20T11:20:19.444Z,6.95
2022-11-20T11:21:53.861Z,7.93
2022-11-20T11:23:33.010Z,8.00
2022-11-20T11:24:56.737Z,7.10
2022-11-20T11:26:25.221Z,6.85
2022-11-20T11:27:48.386Z,8.23
2022-11-20T11:29:21.177Z,7.88
2022-11-20T11:30:45.932Z,7.93
2022-11-20T11:32:10.428Z,7.47
2022-11-20T11:33:35.536Z,7.55
2022-11-20T11:35:02.972Z,7.35
2022-11-20T11:36:26.620Z,5.93
2022-11-20T11:37:50.131Z,6.45
2022-11-20T11:39:17.669Z,7.22
2022-11-20T11:40:41.727Z,7.00
2022-11-20T11:42:06.559Z,6.88
2022-11-20T11:43:49.671Z,7.18
2022-11-20T11:45:19.119Z,7.13
2022-11-20T11:46:45.476Z,6.97
2022-11-20T11:48:11.218Z,7.22
2022-11-20T11:49:34.825Z,7.50
2022-11-20T11:50:58.243Z,7.32
2022-11-20T11:52:23.464Z,7.03
2022-11-20T11:53:48.659Z,8.88
2022-11-20T11:55:16.731Z,6.60
2022-11-20T11:56:40.300Z,7.43
2022-11-20T11:58:14.054Z,6.75
2022-11-20T11:59:51.259Z,6.85
2022-11-20T12:01:27.050Z,5.70
2022-11-20T12:02:59.831Z,6.45
2022-11-20T12:04:29.724Z,7.68
2022-11-20T12:05:58.148Z,6.82
2022-11-20T12:07:46.106Z,6.65
2022-11-20T12:09:12.830Z,9.35
2022-11-20T12:10:43.661Z,6.55
2022-11-20T12:12:11.181Z,6.13
2022-11-20T12:13:48.755Z,6.63
2022-11-20T12:15:15.266Z,6.90
2022-11-20T12:16:39.982Z,6.00
2022-11-20T12:18:03.579Z,7.57
2022-11-20T12:19:27.234Z,7.57
2022-11-20T12:20:59.728Z,7.15
2022-11-20T12:22:29.871Z,5.40
2022-11-20T12:24:21.896Z,6.38
2022-11-20T12:25:50.747Z,6.03
2022-11-20T12:27:55.513Z,6.53
2022-11-20T12:29:26.012Z,5.70
2022-11-20T12:31:00.670Z,5.53
2022-11-20T12:32:50.661Z,5.00
2022-11-20T12:34:25.913Z,5.28
2022-11-20T12:36:16.295Z,5.25
2022-11-20T12:37:47.706Z,4.10
2022-11-20T12:39:29.038Z,5.30
2022-11-20T12:40:57.396Z,5.25
2022-11-20T12:42:47.540Z,5.15
2022-11-20T12:44:40.813Z,4.10
2022-11-20T12:46:21.133Z,5.38
2022-11-20T12:48:14.489Z,4.75
2022-11-20T12:49:42.556Z,4.05
2022-11-20T12:51:21.083Z,5.72
2022-11-20T12:52:48.272Z,4.78
2022-11-20T12:54:32.179Z,4.18
2022-11-20T12:56:01.684Z,5.47
2022-11-20T12:57:30.007Z,4.43
2022-11-20T12:59:01.625Z,5.05
2022-11-20T13:00:27.028Z,5.90
2022-11-20T13:01:52.238Z,4.55
2022-11-20T13:03:30.596Z,4.43
2022-11-20T13:05:08.425Z,5.18
2022-11-20T13:06:31.801Z,6.50
2022-11-20T13:07:55.954Z,6.25
2022-11-20T13:09:22.804Z,4.63
2022-11-20T13:10:49.766Z,5.15
2022-11-20T13:12:16.137Z,4.55
2022-11-20T13:13:49.450Z,4.70
2022-11-20T13:15:24.881Z,4.28
2022-11-20T13:16:54.248Z,4.78
2022-11-20T13:18:18.150Z,5.05
2022-11-20T13:19:41.866Z,5.93
2022-11-20T13:21:17.220Z,5.32
2022-11-20T13:22:46.579Z,6.35
2022-11-20T13:24:24.269Z,5.20
2022-11-20T13:25:48.844Z,5.32
2022-11-20T13:27:23.992Z,4.55
2022-11-20T13:28:49.018Z,4.72
2022-11-20T13:30:19.091Z,4.82
2022-11-20T13:31:46.293Z,5.38
2022-11-20T13:33:24.357Z,4.80
2022-11-20T13:34:55.527Z,4.88
2022-11-20T13:36:24.774Z,7.47
2022-11-20T13:37:48.166Z,6.10
2022-11-20T13:39:11.599Z,6.65
2022-11-20T13:40:36.121Z,4.90
2022-11-20T13:42:00.685Z,7.80
2022-11-20T13:43:36.822Z,6.50
2022-11-20T13:45:10.309Z,8.77
2022-11-20T13:46:42.063Z,6.95
2022-11-20T13:48:18.315Z,5.72
2022-11-20T13:49:45.369Z,7.32
2022-11-20T13:51:17.454Z,7.95
2022-11-20T13:52:47.440Z,6.43
2022-11-20T13:54:25.104Z,5.68
2022-11-20T13:55:53.273Z,7.07
2022-11-20T13:57:34.072Z,7.00
2022-11-20T13:59:05.494Z,6.72
2022-11-20T14:00:29.659Z,5.50
2022-11-20T14:01:53.178Z,5.90
2022-11-20T14:03:43.737Z,5.90
2022-11-20T14:05:06.901Z,5.28
2022-11-20T14:06:32.384Z,4.00
2022-11-20T14:07:56.562Z,4.50
2022-11-20T14:09:28.958Z,4.65
2022-11-20T14:10:52.333Z,4.63
2022-11-20T14:12:18.863Z,4.32
2022-11-20T14:13:52.483Z,4.18
2022-11-20T14:15:27.364Z,4.93
2022-11-20T14:16:51.959Z,4.30
2022-11-20T14:18:17.150Z,4.13
2022-11-20T14:19:42.136Z,4.85
2022-11-20T14:21:06.981Z,4.10
2022-11-20T14:22:30.419Z,3.95
2022-11-20T14:23:56.204Z,4.30
2022-11-20T14:25:27.752Z,4.72
2022-11-20T14:26:51.921Z,4.35
2022-11-20T14:28:25.310Z,4.38
2022-11-20T14:29:50.206Z,4.25
2022-11-20T14:31:23.464Z,4.80
2022-11-20T14:32:48.020Z,5.28
2022-11-20T14:34:17.070Z,4.75
2022-11-20T14:35:46.418Z,4.30
2022-11-20T14:37:17.003Z,4.20
2022-11-20T14:38:41.631Z,4.53
2022-11-20T14:40:07.437Z,4.80
2022-11-20T14:41:33.118Z,4.13
2022-11-20T14:42:56.739Z,4.30
2022-11-20T14:44:22.851Z,4.05
2022-11-20T14:45:46.871Z,4.28
2022-11-20T14:47:13.051Z,6.13
2022-11-20T14:48:39.382Z,5.28
2022-11-20T14:50:08.801Z,6.10
2022-11-20T14:51:35.745Z,4.32
2022-11-20T14:53:02.070Z,4.72
2022-11-20T14:54:27.070Z,4.13
2022-11-20T14:55:59.103Z,4.70
2022-11-20T14:57:27.991Z,4.85
2022-11-20T14:58:58.386Z,4.65
2022-11-20T15:00:24.023Z,3.85
2022-11-20T15:01:57.703Z,4.75
2022-11-20T15:03:21.105Z,4.45
2022-11-20T15:04:49.042Z,4.60
2022-11-20T15:06:14.060Z,4.75
2022-11-20T15:07:39.238Z,4.95
2022-11-20T15:09:05.210Z,4.55
2022-11-20T15:10:29.574Z,5.03
2022-11-20T15:11:59.219Z,4.78
2022-11-20T15:13:26.475Z,4.70
2022-11-20T15:14:50.234Z,4.45
2022-11-20T15:16:18.012Z,5.15
2022-11-20T15:17:43.993Z,5.45
2022-11-20T15:19:18.586Z,5.63
2022-11-20T15:20:42.030Z,4.18
2022-11-20T15:22:06.184Z,4.65
2022-11-20T15:23:30.775Z,5.07
2022-11-20T15:24:55.849Z,4.75
2022-11-20T15:26:24.460Z,4.82
2022-11-20T15:27:48.496Z,5.03
2022-11-20T15:29:12.940Z,4.78
2022-11-20T15:30:36.344Z,4.93
2022-11-20T15:31:59.682Z,5.63
2022-11-20T15:33:23.115Z,4.85
2022-11-20T15:34:46.521Z,5.43
2022-11-20T15:36:10.119Z,6.07
2022-11-20T15:37:33.549Z,5.70
2022-11-20T15:38:56.929Z,6.45
2022-11-20T15:40:22.132Z,4.38
2022-11-20T15:41:45.575Z,5.57
2022-11-20T15:43:13.417Z,5.50
2022-11-20T15:44:37.136Z,4.53
2022-11-20T15:46:02.664Z,5.05
2022-11-20T15:47:29.234Z,5.10
2022-11-20T15:48:55.986Z,5.85
2022-11-20T15:50:19.132Z,5.53
2022-11-20T15:51:45.200Z,4.78
2022-11-20T15:53:10.010Z,5.43
2022-11-20T15:54:33.703Z,5.47
2022-11-20T15:55:58.440Z,5.32
2022-11-20T15:57:22.185Z,5.82
2022-11-20T15:58:45.583Z,5.90
2022-11-20T16:00:10.417Z,5.68
2022-11-20T16:01:33.846Z,5.68
2022-11-20T16:02:57.275Z,5.32
2022-11-20T16:04:21.058Z,5.90
2022-11-20T16:05:44.783Z,5.93
2022-11-20T16:07:08.392Z,4.78
2022-11-20T16:08:31.937Z,5.43
2022-11-20T16:09:57.579Z,6.43
2022-11-20T16:11:22.346Z,6.10
2022-11-20T16:13:03.377Z,5.60
2022-11-20T16:14:44.452Z,5.18
2022-11-20T16:16:11.004Z,5.45
2022-11-20T16:17:44.277Z,4.97
2022-11-20T16:19:07.852Z,4.75
2022-11-20T16:20:31.911Z,5.32
2022-11-20T16:22:01.200Z,5.15
2022-11-20T16:23:26.132Z,5.30
2022-11-20T16:24:49.498Z,5.10
2022-11-20T16:26:13.751Z,4.72
2022-11-20T16:27:38.504Z,8.48
2022-11-20T16:29:03.412Z,5.95
2022-11-20T16:30:27.272Z,5.70
2022-11-20T16:31:50.853Z,5.78
2022-11-20T16:33:15.497Z,5.13
2022-11-20T16:34:38.911Z,6.20
2022-11-20T16:36:10.035Z,5.93
2022-11-20T16:37:33.817Z,5.82
2022-11-20T16:38:58.365Z,5.88
2022-11-20T16:40:20.895Z,6.15
2022-11-20T16:41:44.243Z,6.22
2022-11-20T16:43:12.238Z,6.03
2022-11-20T16:44:35.812Z,5.40
2022-11-20T16:46:06.240Z,5.20
2022-11-20T16:47:29.785Z,5.75
2022-11-20T16:48:55.889Z,5.97
2022-11-20T16:50:19.343Z,5.13
2022-11-20T16:51:43.231Z,4.68
2022-11-20T16:53:06.651Z,5.72
2022-11-20T16:54:30.209Z,5.55
2022-11-20T16:55:53.601Z,5.70
2022-11-20T16:57:17.016Z,5.47
2022-11-20T16:58:41.890Z,5.88
2022-11-20T17:00:06.401Z,5.90
2022-11-20T17:01:31.357Z,6.50
2022-11-20T17:02:54.788Z,5.43
2022-11-20T17:04:18.283Z,5.45
2022-11-20T17:05:41.692Z,5.78
2022-11-20T17:07:08.074Z,5.13
2022-11-20T17:08:31.640Z,5.93
2022-11-20T17:09:55.064Z,5.38
2022-11-20T17:11:19.617Z,5.47
2022-11-20T17:12:44.763Z,5.32
2022-11-20T17:14:09.754Z,5.50
2022-11-20T17:15:33.239Z,6.07
2022-11-20T17:16:56.610Z,5.72
2022-11-20T17:18:20.026Z,5.72
2022-11-20T17:19:43.520Z,6.28
2022-11-20T17:21:08.829Z,5.35
2022-11-20T17:22:34.598Z,6.55
2022-11-20T17:24:00.808Z,6.07
2022-11-20T17:25:24.138Z,5.97
2022-11-20T17:26:49.321Z,6.00
2022-11-20T17:28:12.693Z,6.20
2022-11-20T17:29:41.908Z,6.38
2022-11-20T17:31:08.556Z,6.25
2022-11-20T17:32:32.051Z,6.20
2022-11-20T17:33:55.798Z,5.97
2022-11-20T17:35:19.202Z,6.30
2022-11-20T17:36:45.663Z,5.57
2022-11-20T17:38:09.407Z,5.85
2022-11-20T17:39:32.825Z,6.13
2022-11-20T17:41:02.427Z,5.97
2022-11-20T17:42:29.630Z,5.63
2022-11-20T17:43:55.690Z,6.53
2022-11-20T17:45:20.478Z,6.38
2022-11-20T17:46:43.861Z,6.40
2022-11-20T17:48:07.564Z,6.57
2022-11-20T17:49:30.960Z,5.88
2022-11-20T17:50:54.483Z,6.45
2022-11-20T17:52:17.914Z,5.85
2022-11-20T17:53:42.822Z,6.93
2022-11-20T17:55:07.023Z,6.57
2022-11-20T17:56:50.357Z,6.45
2022-11-20T17:58:12.748Z,8.07
2022-11-20T17:59:36.103Z,5.93
2022-11-20T18:01:07.776Z,6.70
2022-11-20T18:02:31.280Z,6.15
2022-11-20T18:03:54.627Z,6.18
2022-11-20T18:05:18.335Z,6.10
2022-11-20T18:06:41.791Z,6.28
2022-11-20T18:08:05.241Z,6.80
2022-11-20T18:09:28.659Z,5.97
2022-11-20T18:10:52.093Z,6.60
2022-11-20T18:12:15.501Z,6.63
2022-11-20T18:13:56.473Z,5.68
2022-11-20T18:15:20.115Z,6.70
2022-11-20T18:16:45.931Z,7.00
2022-11-20T18:18:09.297Z,6.63
2022-11-20T18:19:37.560Z,6.55
2022-11-20T18:21:03.592Z,6.57
2022-11-20T18:22:26.928Z,6.43
2022-11-20T18:23:50.294Z,6.57
2022-11-20T18:25:14.287Z,6.28
2022-11-20T18:26:43.896Z,7.45
2022-11-20T18:28:07.822Z,6.68
2022-11-20T18:29:32.105Z,6.40
2022-11-20T18:30:55.554Z,6.88
2022-11-20T18:32:20.481Z,6.40
2022-11-20T18:33:43.973Z,6.10
2022-11-20T18:35:08.200Z,6.25
2022-11-20T18:36:32.587Z,5.93
2022-11-20T18:37:55.994Z,5.78
2022-11-20T18:39:19.390Z,6.68
2022-11-20T18:40:41.754Z,6.65
2022-11-20T18:42:22.703Z,6.15
2022-11-20T18:44:03.745Z,6.78
2022-11-20T18:45:27.267Z,6.68
2022-11-20T18:46:49.831Z,6.70
2022-11-20T18:48:14.697Z,5.88
2022-11-20T18:49:39.048Z,6.30
2022-11-20T18:51:06.999Z,7.05
2022-11-20T18:52:33.887Z,6.93
2022-11-20T18:53:57.637Z,6.97
2022-11-20T18:55:24.262Z,6.80
2022-11-20T18:56:47.619Z,6.32
2022-11-20T18:58:11.041Z,6.22
2022-11-20T18:59:34.378Z,6.45
2022-11-20T19:00:57.749Z,6.30
2022-11-20T19:02:21.752Z,6.47
2022-11-20T19:03:46.757Z,6.88
2022-11-20T19:05:10.448Z,7.07
2022-11-20T19:06:32.819Z,7.65
2022-11-20T19:07:56.157Z,6.95